Avinger, Texas
Current Conditions -  °F | °C
As of 1:55 AM on Thursday 27 Nov 2014 (Local Time) from KOSA Reporting Station
Clear Clear  
Wind Chill: 38°   Ceiling: Unl
Heat Index: 44°   Visibility: 10mi
Dew Point: 29°   Wind: 12mph
Humidity: 55%   Direction: 320°NW
Pressure: 30.43"   Gusts: NA
Location:  32.9°N, 94.56°W
Report Text: KOSA 270755Z AUTO 32010KT 10SM CLR 07/M02 A3043 RMK AO1 T00661019
Loading
Personal Weather Stations






























Interactive Weather Map New forecast layout! Learn more

10-Day Weather Forecast

Advertisements
Track Severe Weather on mobile